Time;durP1;ratioP1;P1;durP2;ratioP2;P2;SDS_P1;SDS_P2;PMS_P1;PMS_P2;Temp;Humidity;BMP_temperature;BMP_pressure;BME280_temperature;BME280_humidity;BME280_pressure;Samples;Min_cycle;Max_cycle;Signal;HPM_P1;HPM_P2
2024/03/04 00:02:03;;;;;;;6.28;3.47;;;8.20;88.00;;;;;;5135683;28;20071;-73
2024/03/04 00:04:29;;;;;;;6.53;3.20;;;8.10;87.40;;;;;;5117002;28;20490;-73
2024/03/04 00:06:54;;;;;;;6.00;3.30;;;8.20;87.50;;;;;;5114591;28;20047;-73
2024/03/04 00:09:20;;;;;;;6.03;3.42;;;8.20;87.60;;;;;;5099954;28;20047;-73
2024/03/04 00:11:46;;;;;;;5.57;2.97;;;8.20;87.60;;;;;;5099879;28;20042;-74
2024/03/04 00:14:11;;;;;;;4.90;2.90;;;8.30;87.70;;;;;;5116955;28;20039;-73
2024/03/04 00:16:41;;;;;;;5.45;2.70;;;8.10;87.70;;;;;;5099591;28;20050;-73
2024/03/04 00:19:07;;;;;;;5.22;2.67;;;8.20;87.80;;;;;;5117078;28;20051;-73
2024/03/04 00:21:33;;;;;;;5.72;3.05;;;8.20;87.80;;;;;;5134768;28;20084;-73
2024/03/04 00:23:58;;;;;;;5.75;3.05;;;8.20;87.80;;;;;;5099737;28;20035;-73
2024/03/04 00:26:24;;;;;;;4.53;2.40;;;8.20;87.80;;;;;;5099562;28;20039;-73
2024/03/04 00:28:50;;;;;;;5.95;3.17;;;8.20;87.80;;;;;;5116927;28;20065;-73
2024/03/04 00:31:15;;;;;;;6.05;3.20;;;8.20;87.80;;;;;;5135144;28;20148;-73
2024/03/04 00:33:41;;;;;;;6.78;3.47;;;8.30;87.80;;;;;;5100159;28;20454;-74
2024/03/04 00:36:07;;;;;;;4.75;2.70;;;8.30;87.70;;;;;;5083423;28;20039;-74
2024/03/04 00:38:33;;;;;;;6.13;3.20;;;8.30;87.70;;;;;;5115163;28;20399;-74
2024/03/04 00:40:58;;;;;;;6.18;3.13;;;8.30;87.70;;;;;;5114423;28;20040;-73
2024/03/04 00:43:24;;;;;;;4.78;2.53;;;8.40;87.80;;;;;;5098239;28;20046;-74
2024/03/04 00:45:50;;;;;;;6.97;3.50;;;8.40;87.80;;;;;;5099102;28;20141;-74
2024/03/04 00:48:16;;;;;;;6.63;3.40;;;8.40;87.80;;;;;;5080621;28;20422;-73
2024/03/04 00:50:41;;;;;;;4.95;2.92;;;8.40;87.80;;;;;;5100058;28;20390;-74
2024/03/04 00:53:07;;;;;;;7.30;3.60;;;8.40;87.80;;;;;;5098964;28;20108;-75
2024/03/04 00:55:33;;;;;;;6.60;3.42;;;8.40;87.80;;;;;;5083096;28;20118;-75
2024/03/04 00:57:59;;;;;;;5.70;2.95;;;8.40;87.80;;;;;;5116555;28;20126;-73
2024/03/04 01:00:25;;;;;;;6.28;3.20;;;8.40;87.80;;;;;;5082225;28;20036;-74
2024/03/04 01:02:53;;;;;;;5.45;3.00;;;8.40;87.90;;;;;;5134814;28;20126;-74
2024/03/04 01:05:19;;;;;;;5.95;3.42;;;8.40;88.00;;;;;;5134367;28;20039;-75
2024/03/04 01:07:44;;;;;;;5.90;3.22;;;8.40;88.00;;;;;;5099330;28;20117;-74
2024/03/04 01:10:11;;;;;;;5.53;3.00;;;8.50;88.10;;;;;;5116266;28;20529;-75
2024/03/04 01:12:37;;;;;;;5.30;2.88;;;8.30;88.00;;;;;;5097821;28;20043;-75
2024/03/04 01:15:05;;;;;;;4.57;2.40;;;8.40;88.20;;;;;;5097840;28;20048;-75
2024/03/04 01:17:31;;;;;;;4.80;2.30;;;8.40;88.20;;;;;;5134765;28;20043;-75
2024/03/04 01:19:57;;;;;;;3.95;2.22;;;8.40;88.30;;;;;;5082258;28;20050;-75
2024/03/04 01:22:23;;;;;;;4.47;2.45;;;8.40;88.30;;;;;;5116380;28;20390;-75
2024/03/04 01:24:49;;;;;;;4.15;2.28;;;8.40;88.40;;;;;;5100006;28;20130;-75
2024/03/04 01:27:15;;;;;;;5.03;2.60;;;8.40;88.30;;;;;;5100455;28;20058;-75
2024/03/04 01:29:41;;;;;;;5.25;2.95;;;8.40;88.40;;;;;;5135847;28;20039;-75
2024/03/04 01:32:09;;;;;;;6.18;3.33;;;8.40;88.40;;;;;;5100564;28;20065;-75
2024/03/04 01:34:38;;;;;;;5.75;2.92;;;8.30;88.40;;;;;;5135349;28;20043;-75
2024/03/04 01:37:06;;;;;;;9.07;3.33;;;8.40;88.50;;;;;;5116320;28;20046;-75
2024/03/04 01:39:33;;;;;;;6.57;2.88;;;8.30;88.50;;;;;;5116784;28;20047;-75
2024/03/04 01:41:59;;;;;;;5.93;3.00;;;8.40;88.60;;;;;;5136123;28;20066;-75
2024/03/04 01:44:32;;;;;;;4.53;2.50;;;8.40;88.60;;;;;;5135165;28;20042;-75
2024/03/04 01:46:58;;;;;;;4.82;2.25;;;8.30;88.60;;;;;;5084076;28;20036;-75
2024/03/04 01:49:24;;;;;;;4.32;2.38;;;8.40;88.70;;;;;;5100282;28;20043;-75
2024/03/04 01:51:50;;;;;;;3.47;1.98;;;8.40;88.70;;;;;;5116573;28;20039;-75
2024/03/04 01:54:17;;;;;;;5.65;2.50;;;8.40;88.80;;;;;;5134503;27;21306;-75
2024/03/04 01:56:43;;;;;;;4.88;2.55;;;8.40;88.80;;;;;;5099766;28;20129;-76
2024/03/04 01:59:09;;;;;;;4.82;2.63;;;8.40;88.80;;;;;;5085274;28;20043;-75
2024/03/04 02:01:36;;;;;;;4.18;2.20;;;8.40;88.80;;;;;;5136279;28;20106;-75
2024/03/04 02:04:02;;;;;;;4.50;2.28;;;8.40;88.90;;;;;;5136593;28;20062;-75
2024/03/04 02:06:28;;;;;;;3.97;2.17;;;8.40;88.90;;;;;;5116806;28;20393;-75
2024/03/04 02:08:54;;;;;;;5.70;2.97;;;8.30;88.80;;;;;;5117106;28;20397;-75
2024/03/04 02:11:20;;;;;;;5.90;2.45;;;8.30;88.90;;;;;;5101040;28;20043;-75
2024/03/04 02:13:46;;;;;;;3.45;1.95;;;8.40;89.00;;;;;;5116184;28;20043;-75
2024/03/04 02:16:13;;;;;;;3.20;1.80;;;8.40;89.00;;;;;;5117616;28;20054;-75
2024/03/04 02:18:38;;;;;;;5.57;2.55;;;8.40;89.00;;;;;;5100072;28;20089;-75
2024/03/04 02:21:06;;;;;;;4.72;2.40;;;8.50;89.00;;;;;;5100622;28;20035;-75
2024/03/04 02:23:32;;;;;;;5.85;2.90;;;8.40;89.00;;;;;;5133943;28;20175;-75
2024/03/04 02:25:58;;;;;;;5.00;2.67;;;8.40;89.00;;;;;;5099098;28;20043;-75
2024/03/04 02:28:28;;;;;;;5.00;2.63;;;8.40;89.10;;;;;;5136497;28;20042;-75
2024/03/04 02:30:57;;;;;;;4.25;2.60;;;8.40;89.10;;;;;;5116850;28;20055;-75
2024/03/04 02:33:26;;;;;;;5.82;2.50;;;8.40;89.20;;;;;;5103238;28;20474;-75
2024/03/04 02:35:52;;;;;;;4.30;2.17;;;8.30;89.00;;;;;;5115572;28;20042;-75
2024/03/04 02:38:18;;;;;;;4.25;2.03;;;8.40;89.10;;;;;;5135463;28;20043;-75
2024/03/04 02:40:45;;;;;;;6.07;2.50;;;8.50;89.20;;;;;;5117403;28;20047;-75
2024/03/04 02:43:11;;;;;;;4.63;2.28;;;8.40;89.20;;;;;;5116051;28;20092;-75
2024/03/04 02:45:38;;;;;;;4.65;2.47;;;8.40;89.20;;;;;;5134247;28;20039;-76
2024/03/04 02:48:05;;;;;;;4.93;2.45;;;8.50;89.30;;;;;;5116526;28;20043;-75
2024/03/04 02:50:33;;;;;;;6.15;3.17;;;8.50;89.30;;;;;;5134378;28;20363;-75
2024/03/04 02:52:59;;;;;;;6.25;3.20;;;8.50;89.30;;;;;;5115098;28;20031;-75
2024/03/04 02:55:25;;;;;;;7.30;3.85;;;8.50;89.30;;;;;;5097501;28;20045;-75
2024/03/04 02:57:50;;;;;;;5.97;3.35;;;8.40;89.20;;;;;;5096546;28;20122;-75
2024/03/04 03:00:16;;;;;;;6.03;3.20;;;8.50;89.30;;;;;;5114745;28;20084;-75
2024/03/04 03:02:42;;;;;;;6.95;3.10;;;8.50;89.30;;;;;;5133498;28;20039;-75
2024/03/04 03:05:08;;;;;;;8.95;4.18;;;8.50;89.30;;;;;;5114913;27;20122;-76
2024/03/04 03:07:34;;;;;;;5.95;3.30;;;8.50;89.30;;;;;;5118694;28;20047;-75
2024/03/04 03:10:02;;;;;;;6.60;3.25;;;8.50;89.30;;;;;;5118261;28;20096;-75
2024/03/04 03:12:27;;;;;;;6.15;3.13;;;8.50;89.30;;;;;;5136795;28;20035;-75
2024/03/04 03:14:53;;;;;;;7.60;3.15;;;8.50;89.40;;;;;;5120656;28;20556;-75
2024/03/04 03:17:20;;;;;;;6.55;2.92;;;8.50;89.30;;;;;;5118877;28;20129;-75
2024/03/04 03:19:46;;;;;;;5.05;2.92;;;8.50;89.30;;;;;;5137598;28;20047;-76
2024/03/04 03:22:11;;;;;;;6.75;3.28;;;8.50;89.40;;;;;;5139029;28;20046;-75
2024/03/04 03:24:37;;;;;;;5.35;2.72;;;8.50;89.40;;;;;;5119659;28;20027;-75
2024/03/04 03:27:03;;;;;;;4.43;2.45;;;8.50;89.40;;;;;;5119197;28;20047;-75
2024/03/04 03:29:28;;;;;;;6.47;2.38;;;8.40;89.30;;;;;;5118247;28;20028;-75
2024/03/04 03:31:54;;;;;;;4.80;2.10;;;8.40;89.30;;;;;;5139202;28;20066;-75
2024/03/04 03:34:20;;;;;;;4.10;2.08;;;8.50;89.40;;;;;;5137773;28;20074;-75
2024/03/04 03:36:46;;;;;;;5.15;2.70;;;8.40;89.30;;;;;;5118253;28;20062;-75
2024/03/04 03:39:12;;;;;;;4.05;2.17;;;8.40;89.30;;;;;;5104669;28;20494;-75
2024/03/04 03:41:39;;;;;;;3.58;2.00;;;8.40;89.40;;;;;;5138632;28;20039;-75
2024/03/04 03:44:05;;;;;;;3.90;2.13;;;8.40;89.30;;;;;;5102682;28;20034;-75
2024/03/04 03:46:31;;;;;;;2.97;1.85;;;8.40;89.30;;;;;;5139696;28;20039;-75
2024/03/04 03:48:56;;;;;;;2.92;1.55;;;8.40;89.30;;;;;;5140211;28;20042;-75
2024/03/04 03:51:23;;;;;;;3.35;1.40;;;8.30;89.30;;;;;;5138725;28;20050;-75
2024/03/04 03:53:48;;;;;;;3.65;1.60;;;8.30;89.40;;;;;;5120357;28;20047;-74
2024/03/04 03:56:14;;;;;;;3.35;1.58;;;8.30;89.40;;;;;;5120708;28;20531;-75
2024/03/04 03:58:40;;;;;;;2.95;1.52;;;8.40;89.50;;;;;;5122156;28;20103;-75
2024/03/04 04:01:06;;;;;;;3.33;1.42;;;8.30;89.50;;;;;;5119890;28;20063;-75
2024/03/04 04:03:33;;;;;;;2.50;1.40;;;8.30;89.50;;;;;;5122128;28;20035;-75
2024/03/04 04:06:00;;;;;;;2.20;1.20;;;8.20;89.40;;;;;;5103753;28;20046;-76
2024/03/04 04:08:26;;;;;;;2.72;1.20;;;8.20;89.40;;;;;;5139191;28;20046;-74
2024/03/04 04:10:51;;;;;;;5.97;2.40;;;8.20;89.50;;;;;;5102624;28;20039;-75
2024/03/04 04:13:17;;;;;;;3.58;1.50;;;8.20;89.40;;;;;;5120892;28;20047;-75
2024/03/04 04:15:43;;;;;;;2.25;1.25;;;8.20;89.40;;;;;;5138879;28;20027;-76
2024/03/04 04:18:08;;;;;;;2.38;1.40;;;8.20;89.50;;;;;;5137085;27;20050;-75
2024/03/04 04:20:34;;;;;;;2.92;1.40;;;8.20;89.50;;;;;;5118624;28;20073;-74
2024/03/04 04:23:00;;;;;;;3.78;1.25;;;8.20;89.50;;;;;;5119840;28;20043;-74
2024/03/04 04:25:26;;;;;;;2.95;1.10;;;8.20;89.50;;;;;;5138270;28;20033;-76
2024/03/04 04:27:52;;;;;;;1.58;1.02;;;8.20;89.50;;;;;;5119532;28;20039;-75
2024/03/04 04:30:17;;;;;;;2.15;1.30;;;8.20;89.50;;;;;;5101646;28;20039;-75
2024/03/04 04:32:43;;;;;;;2.97;1.40;;;8.20;89.60;;;;;;5119932;28;20246;-75
2024/03/04 04:35:09;;;;;;;3.35;1.50;;;8.20;89.50;;;;;;5121852;28;20183;-75
2024/03/04 04:37:35;;;;;;;2.15;1.30;;;8.20;89.50;;;;;;5104292;28;20092;-75
2024/03/04 04:40:01;;;;;;;2.88;1.30;;;8.20;89.50;;;;;;5104802;28;20051;-75
2024/03/04 04:42:27;;;;;;;3.22;1.30;;;8.20;89.50;;;;;;5119253;28;20046;-75
2024/03/04 04:44:53;;;;;;;2.45;1.50;;;8.20;89.50;;;;;;5106663;28;20126;-75
2024/03/04 04:47:22;;;;;;;2.75;1.42;;;8.10;89.40;;;;;;5107030;28;20447;-75
2024/03/04 04:49:48;;;;;;;2.63;1.50;;;8.10;89.40;;;;;;5119116;28;20570;-75
2024/03/04 04:52:14;;;;;;;3.47;1.30;;;8.20;89.60;;;;;;5139983;28;20509;-75
2024/03/04 04:54:40;;;;;;;2.10;1.23;;;8.20;89.60;;;;;;5140006;28;20047;-75
2024/03/04 04:57:05;;;;;;;1.92;1.15;;;8.10;89.50;;;;;;5121214;28;20043;-75
2024/03/04 04:59:31;;;;;;;2.75;1.35;;;8.20;89.60;;;;;;5120817;28;20040;-76
2024/03/04 05:01:57;;;;;;;2.40;1.35;;;8.20;89.60;;;;;;5101617;28;20040;-75
2024/03/04 05:04:22;;;;;;;2.13;1.27;;;8.20;89.60;;;;;;5119917;28;20049;-75
2024/03/04 05:06:49;;;;;;;2.58;1.42;;;8.20;89.60;;;;;;5138956;28;20467;-75
2024/03/04 05:09:14;;;;;;;3.50;1.40;;;8.20;89.60;;;;;;5119038;28;20027;-75
2024/03/04 05:11:40;;;;;;;1.58;1.10;;;8.10;89.60;;;;;;5104445;28;20099;-75
2024/03/04 05:14:09;;;;;;;3.55;1.27;;;8.20;89.70;;;;;;5102306;28;20379;-75
2024/03/04 05:16:34;;;;;;;1.40;0.95;;;8.20;89.70;;;;;;5120732;28;20055;-76
2024/03/04 05:19:01;;;;;;;1.95;1.10;;;8.20;89.70;;;;;;5118866;28;20039;-75
2024/03/04 05:21:27;;;;;;;1.38;0.90;;;8.10;89.70;;;;;;5139226;28;20084;-75
2024/03/04 05:23:53;;;;;;;0.98;0.75;;;8.20;89.70;;;;;;5118018;28;20110;-75
2024/03/04 05:26:18;;;;;;;3.45;0.90;;;8.20;89.70;;;;;;5137273;28;20526;-76
2024/03/04 05:28:44;;;;;;;1.80;1.00;;;8.20;89.70;;;;;;5117356;28;20045;-75
2024/03/04 05:31:10;;;;;;;2.53;1.02;;;8.20;89.70;;;;;;5140358;28;20054;-75
2024/03/04 05:33:36;;;;;;;2.40;1.17;;;8.20;89.70;;;;;;5120375;28;20045;-75
2024/03/04 05:36:04;;;;;;;2.53;1.33;;;8.20;89.70;;;;;;5140198;28;20039;-75
2024/03/04 05:38:31;;;;;;;1.08;0.77;;;8.10;89.70;;;;;;5120299;28;20087;-75
2024/03/04 05:40:57;;;;;;;1.88;1.08;;;8.10;89.80;;;;;;5100023;28;20573;-75
2024/03/04 05:43:23;;;;;;;1.88;0.80;;;8.10;89.80;;;;;;5137213;28;20071;-75
2024/03/04 05:45:49;;;;;;;1.50;0.85;;;8.10;89.80;;;;;;5119710;28;20043;-76
2024/03/04 05:48:14;;;;;;;1.58;0.80;;;8.10;89.80;;;;;;5102698;28;20043;-75
2024/03/04 05:50:40;;;;;;;1.55;1.00;;;8.10;89.80;;;;;;5104722;28;20474;-76
2024/03/04 05:53:06;;;;;;;0.90;0.70;;;8.10;89.80;;;;;;5122909;28;20035;-76
2024/03/04 05:55:32;;;;;;;1.38;0.80;;;8.10;89.80;;;;;;5138627;28;20043;-75
2024/03/04 05:57:57;;;;;;;0.88;0.60;;;8.10;89.80;;;;;;5139277;28;20126;-75
2024/03/04 06:00:24;;;;;;;0.93;0.70;;;8.10;89.80;;;;;;5120978;28;20078;-75
2024/03/04 06:02:49;;;;;;;1.10;0.70;;;8.10;89.80;;;;;;5105238;28;20490;-75
2024/03/04 06:05:15;;;;;;;1.70;1.00;;;8.20;89.80;;;;;;5141179;28;20066;-74
2024/03/04 06:07:41;;;;;;;0.90;0.85;;;8.10;89.80;;;;;;5116826;28;20043;-77
2024/03/04 06:10:08;;;;;;;0.50;0.50;;;8.10;89.70;;;;;;5098468;28;20043;-76
2024/03/04 06:12:34;;;;;;;0.75;0.63;;;8.10;89.80;;;;;;5118401;28;20043;-75
2024/03/04 06:14:59;;;;;;;1.42;0.80;;;8.10;89.80;;;;;;5117485;28;20366;-75
2024/03/04 06:17:27;;;;;;;1.85;0.77;;;8.10;89.80;;;;;;5117127;28;20046;-75
2024/03/04 06:19:53;;;;;;;1.20;0.90;;;8.10;89.70;;;;;;5117149;28;20145;-75
2024/03/04 06:22:19;;;;;;;1.75;0.95;;;8.10;89.80;;;;;;5133348;28;20554;-75
2024/03/04 06:24:45;;;;;;;2.08;1.13;;;8.10;89.80;;;;;;5097840;28;20042;-76
2024/03/04 06:27:10;;;;;;;1.45;0.90;;;8.00;89.70;;;;;;5133650;28;20066;-75
2024/03/04 06:29:36;;;;;;;0.70;0.57;;;8.00;89.80;;;;;;5114867;28;20041;-75
2024/03/04 06:32:03;;;;;;;1.05;0.68;;;8.00;89.80;;;;;;5114554;28;20504;-75
2024/03/04 06:34:30;;;;;;;0.50;0.50;;;8.10;89.80;;;;;;5098019;28;20095;-75
2024/03/04 06:36:55;;;;;;;0.80;0.65;;;8.00;89.80;;;;;;5096795;28;20070;-75
2024/03/04 06:39:21;;;;;;;1.00;0.80;;;8.10;89.80;;;;;;5114827;28;20063;-75
2024/03/04 06:41:48;;;;;;;1.05;0.65;;;8.10;89.80;;;;;;5117123;28;20043;-75
2024/03/04 06:44:14;;;;;;;2.53;1.00;;;8.10;89.80;;;;;;5084412;28;20082;-76
2024/03/04 06:46:40;;;;;;;1.77;0.90;;;8.00;89.80;;;;;;5118896;28;20031;-75
2024/03/04 06:49:05;;;;;;;1.60;0.85;;;8.10;89.80;;;;;;5136828;28;20114;-75
2024/03/04 06:51:35;;;;;;;0.50;0.50;;;8.00;89.80;;;;;;5137354;28;20043;-75
2024/03/04 06:54:05;;;;;;;1.30;0.63;;;8.00;89.70;;;;;;5118448;28;20083;-75
2024/03/04 06:56:31;;;;;;;2.00;0.80;;;8.00;89.70;;;;;;5119940;28;20051;-75
2024/03/04 06:58:58;;;;;;;0.73;0.70;;;8.00;89.70;;;;;;5100675;28;20051;-75
2024/03/04 07:01:24;;;;;;;0.73;0.60;;;8.00;89.70;;;;;;5118530;28;20035;-76
2024/03/04 07:03:50;;;;;;;1.30;0.60;;;8.00;89.80;;;;;;5137022;28;20031;-75
2024/03/04 07:06:16;;;;;;;1.10;0.82;;;8.00;89.70;;;;;;5085926;28;20175;-76
2024/03/04 07:08:42;;;;;;;1.02;0.70;;;8.00;89.70;;;;;;5138249;28;20470;-76
2024/03/04 07:11:09;;;;;;;1.48;0.75;;;8.00;89.60;;;;;;5136665;28;20096;-75
2024/03/04 07:13:35;;;;;;;1.23;0.85;;;8.10;89.70;;;;;;5117814;28;20470;-75
2024/03/04 07:16:02;;;;;;;0.65;0.60;;;8.00;89.60;;;;;;5135950;28;20042;-75
2024/03/04 07:18:31;;;;;;;0.90;0.85;;;8.00;89.50;;;;;;5136427;28;20092;-76
2024/03/04 07:20:58;;;;;;;2.10;0.75;;;8.00;89.50;;;;;;5117957;28;20039;-75
2024/03/04 07:23:24;;;;;;;1.10;0.65;;;7.90;89.40;;;;;;5101179;28;20031;-76
2024/03/04 07:25:49;;;;;;;0.73;0.60;;;7.90;89.40;;;;;;5095175;28;20043;-76
2024/03/04 07:28:15;;;;;;;1.10;0.77;;;8.00;89.50;;;;;;5087616;28;20427;-75
2024/03/04 07:30:41;;;;;;;1.67;0.60;;;8.00;89.50;;;;;;5136335;28;20054;-75
2024/03/04 07:33:09;;;;;;;0.57;0.55;;;8.00;89.40;;;;;;5136147;28;20065;-75
2024/03/04 07:35:36;;;;;;;0.93;0.70;;;8.00;89.40;;;;;;5136333;28;20035;-76
2024/03/04 07:38:01;;;;;;;1.75;0.90;;;8.00;89.30;;;;;;5117892;28;20028;-74
2024/03/04 07:40:27;;;;;;;0.70;0.70;;;8.10;89.30;;;;;;5136188;28;20043;-75
2024/03/04 07:42:53;;;;;;;1.00;0.70;;;8.10;89.30;;;;;;5135638;28;20087;-73
2024/03/04 07:45:19;;;;;;;1.40;0.70;;;8.10;89.20;;;;;;5116967;28;20039;-76
2024/03/04 07:47:44;;;;;;;0.80;0.60;;;8.10;89.10;;;;;;5117237;28;20100;-75
2024/03/04 07:50:10;;;;;;;0.65;0.60;;;8.20;89.10;;;;;;5115223;28;20552;-75
2024/03/04 07:52:36;;;;;;;1.00;0.70;;;8.30;89.00;;;;;;5117484;28;20063;-75
2024/03/04 07:55:02;;;;;;;3.65;0.77;;;8.30;88.80;;;;;;5098775;28;20040;-75
2024/03/04 07:57:28;;;;;;;0.90;0.60;;;8.40;88.80;;;;;;5098605;28;20130;-75
2024/03/04 08:00:03;;;;;;;1.75;0.60;;;8.40;88.60;;;;;;5135593;28;20177;-76
2024/03/04 08:02:35;;;;;;;0.85;0.63;;;8.50;88.60;;;;;;5135843;28;20046;-77
2024/03/04 08:05:07;;;;;;;1.13;0.75;;;8.50;88.40;;;;;;5117947;28;20039;-76
2024/03/04 08:07:35;;;;;;;3.10;0.80;;;8.50;88.40;;;;;;5117944;28;20039;-75
2024/03/04 08:10:08;;;;;;;1.45;0.80;;;8.60;88.40;;;;;;5135363;28;20083;-76
2024/03/04 08:12:34;;;;;;;1.80;0.82;;;8.60;88.40;;;;;;5116060;28;20039;-74
2024/03/04 08:15:00;;;;;;;1.02;0.80;;;8.70;88.30;;;;;;5117392;28;20047;-75
2024/03/04 08:17:26;;;;;;;0.95;0.85;;;8.70;88.20;;;;;;5117122;28;20100;-75
2024/03/04 08:19:54;;;;;;;1.40;0.73;;;8.80;88.00;;;;;;5099680;28;20042;-76
2024/03/04 08:22:20;;;;;;;1.35;0.77;;;8.90;87.80;;;;;;5115505;28;20126;-74
2024/03/04 08:24:46;;;;;;;1.15;0.77;;;9.00;87.80;;;;;;5098118;28;20042;-74
2024/03/04 08:27:20;;;;;;;1.48;0.70;;;9.10;87.60;;;;;;5116704;28;20114;-75
2024/03/04 08:29:46;;;;;;;1.60;0.85;;;9.10;87.50;;;;;;5099304;28;20043;-75
2024/03/04 08:32:12;;;;;;;1.42;0.82;;;9.20;87.50;;;;;;5117131;28;20506;-75
2024/03/04 08:34:43;;;;;;;1.25;0.73;;;9.30;87.40;;;;;;5124180;28;20040;-75
2024/03/04 08:37:09;;;;;;;;;;;9.40;87.20;;;;;;5054864;28;20105;-77
2024/03/04 08:39:59;;;;;;;0.88;0.65;;;9.40;87.50;;;;;;5087125;28;19912;-76
2024/03/04 08:43:15;;;;;;;1.98;0.60;;;9.40;86.70;;;;;;4951082;29;20062;-78
2024/03/04 08:46:00;;;;;;;0.80;0.60;;;9.50;87.00;;;;;;4943571;29;20087;-76
2024/03/04 08:48:31;;;;;;;0.85;0.70;;;9.40;86.90;;;;;;4920642;29;20103;-76
2024/03/04 08:51:00;;;;;;;0.73;0.60;;;9.50;86.90;;;;;;4918115;29;20083;-76
2024/03/04 08:53:26;;;;;;;1.23;0.70;;;9.50;86.80;;;;;;4915739;29;20048;-75
2024/03/04 08:55:56;;;;;;;1.23;0.70;;;9.50;86.90;;;;;;4929499;29;20044;-75
2024/03/04 08:58:22;;;;;;;1.17;0.80;;;9.50;86.80;;;;;;4906690;29;20067;-76
2024/03/04 09:00:54;;;;;;;0.63;0.60;;;9.80;87.00;;;;;;4911057;29;20051;-75
2024/03/04 09:03:19;;;;;;;;;;;9.60;86.70;;;;;;4904930;29;20106;-77
2024/03/04 09:05:45;;;;;;;0.50;0.50;;;9.70;86.70;;;;;;4921170;29;19926;-75
2024/03/04 09:08:11;;;;;;;0.95;0.60;;;9.90;86.70;;;;;;4907686;29;20444;-75
2024/03/04 09:10:49;;;;;;;0.63;0.43;;;10.00;86.40;;;;;;4886445;29;20055;-76
2024/03/04 09:13:16;;;;;;;1.65;0.50;;;10.00;86.00;;;;;;4972251;28;20037;-76
2024/03/04 09:16:08;;;;;;;0.80;0.57;;;10.10;86.00;;;;;;5038948;28;20130;-76
2024/03/04 09:18:34;;;;;;;1.08;0.50;;;10.20;86.00;;;;;;5026821;28;20590;-74
2024/03/04 09:21:00;;;;;;;0.60;0.47;;;10.20;86.00;;;;;;5053648;28;20045;-73
2024/03/04 09:23:26;;;;;;;0.70;0.57;;;10.30;86.00;;;;;;5061944;28;20032;-74
2024/03/04 09:25:52;;;;;;;0.85;0.57;;;10.30;85.70;;;;;;5004192;28;20405;-74
2024/03/04 09:28:18;;;;;;;1.35;0.63;;;10.30;85.60;;;;;;5034774;28;20044;-74
2024/03/04 09:30:44;;;;;;;1.33;0.57;;;10.30;85.70;;;;;;5038073;28;20040;-75
2024/03/04 09:33:11;;;;;;;2.03;0.65;;;10.40;85.90;;;;;;5042162;28;20060;-75
2024/03/04 09:35:50;;;;;;;1.00;0.70;;;10.20;85.60;;;;;;5005699;28;20033;-76
2024/03/04 09:38:25;;;;;;;0.60;0.43;;;10.20;85.70;;;;;;4993188;28;20572;-76
2024/03/04 09:40:56;;;;;;;0.50;0.50;;;10.30;85.80;;;;;;4989259;28;20072;-75
2024/03/04 09:43:32;;;;;;;0.50;0.50;;;10.30;85.70;;;;;;4970973;28;20075;-75
2024/03/04 09:46:00;;;;;;;2.05;0.40;;;10.30;85.60;;;;;;4981575;28;20047;-75
2024/03/04 09:48:32;;;;;;;0.55;0.30;;;10.30;85.50;;;;;;4964469;28;20070;-74
2024/03/04 09:55:14;;;;;;;0.45;0.43;;;10.40;85.60;;;;;;4878705;29;20045;-78
2024/03/04 09:57:49;;;;;;;0.32;0.32;;;10.40;85.70;;;;;;4839449;29;20073;-77
2024/03/04 10:00:28;;;;;;;2.15;0.70;;;10.30;85.60;;;;;;4814853;29;20046;-76
2024/03/04 10:02:54;;;;;;;0.75;0.47;;;10.30;85.40;;;;;;4836583;29;20042;-71
2024/03/04 10:05:20;;;;;;;2.38;0.82;;;10.20;85.80;;;;;;4824261;29;20041;-72
2024/03/04 10:07:46;;;;;;;0.70;0.40;;;10.20;85.80;;;;;;4839885;29;20152;-73
2024/03/04 10:10:12;;;;;;;0.40;0.38;;;10.20;85.90;;;;;;4809171;29;20049;-72
2024/03/04 10:12:38;;;;;;;1.00;0.40;;;10.10;86.00;;;;;;4839666;29;20110;-72
2024/03/04 10:15:07;;;;;;;0.70;0.50;;;10.10;85.90;;;;;;4823486;29;20138;-72
2024/03/04 10:17:33;;;;;;;0.30;0.30;;;10.20;86.00;;;;;;4848322;29;20105;-73
2024/03/04 10:20:01;;;;;;;0.43;0.40;;;10.20;85.90;;;;;;4860853;29;20113;-72
2024/03/04 10:22:39;;;;;;;1.13;0.60;;;10.40;86.00;;;;;;4876214;29;20455;-72
2024/03/04 10:25:07;;;;;;;0.70;0.45;;;10.50;85.60;;;;;;4895462;29;20079;-71
2024/03/04 10:27:34;;;;;;;0.85;0.50;;;10.70;85.50;;;;;;4928206;29;20050;-71
2024/03/04 10:30:15;;;;;;;0.65;0.45;;;10.70;85.00;;;;;;4936054;29;20487;-72
2024/03/04 10:32:49;;;;;;;0.40;0.40;;;10.70;84.80;;;;;;4991155;28;20053;-72
2024/03/04 10:35:16;;;;;;;0.50;0.50;;;10.70;84.90;;;;;;5104760;28;20092;-72
2024/03/04 10:37:42;;;;;;;0.40;0.40;;;10.80;85.00;;;;;;5094084;28;20050;-72
2024/03/04 10:40:10;;;;;;;0.30;0.30;;;10.90;84.80;;;;;;5112325;28;20145;-72
2024/03/04 10:42:38;;;;;;;0.77;0.50;;;11.00;84.80;;;;;;5094233;28;20058;-72
2024/03/04 10:45:05;;;;;;;0.77;0.43;;;11.10;84.40;;;;;;5110355;28;20044;-72
2024/03/04 10:47:32;;;;;;;0.40;0.40;;;11.20;84.30;;;;;;5112211;28;20040;-72
2024/03/04 10:49:58;;;;;;;0.52;0.30;;;11.30;84.20;;;;;;5093972;28;20085;-73
2024/03/04 10:52:24;;;;;;;1.15;0.43;;;11.30;84.00;;;;;;5112638;28;20452;-73
2024/03/04 10:54:50;;;;;;;0.30;0.30;;;11.30;84.10;;;;;;5094655;28;20440;-73
2024/03/04 10:57:35;;;;;;;0.82;0.43;;;11.20;83.80;;;;;;5077022;28;20043;-73
2024/03/04 11:00:25;;;;;;;0.50;0.40;;;11.50;83.90;;;;;;5112802;28;20055;-72
2024/03/04 11:03:11;;;;;;;0.30;0.30;;;11.50;83.80;;;;;;5096403;28;20452;-72
2024/03/04 11:05:42;;;;;;;0.70;0.35;;;11.50;83.70;;;;;;5110698;28;20050;-73
2024/03/04 11:08:21;;;;;;;0.45;0.40;;;11.60;83.70;;;;;;5112169;28;20036;-72
2024/03/04 11:10:50;;;;;;;0.32;0.30;;;11.70;83.70;;;;;;5094337;28;20487;-72
2024/03/04 11:13:54;;;;;;;0.60;0.30;;;11.70;83.60;;;;;;5093727;28;20047;-72
2024/03/04 11:16:32;;;;;;;0.68;0.40;;;11.80;83.60;;;;;;5096769;28;20140;-73
2024/03/04 11:19:35;;;;;;;0.63;0.40;;;11.90;83.60;;;;;;5092223;28;20035;-73
2024/03/04 11:22:03;;;;;;;0.30;0.30;;;11.80;83.30;;;;;;5111062;28;20398;-73
2024/03/04 11:24:30;;;;;;;0.43;0.30;;;11.80;83.50;;;;;;5093849;28;20035;-73
2024/03/04 11:26:56;;;;;;;0.95;0.30;;;11.90;83.50;;;;;;5094448;28;20101;-73
2024/03/04 11:29:23;;;;;;;0.85;0.22;;;12.00;83.30;;;;;;5097062;28;20448;-73
2024/03/04 11:31:54;;;;;;;0.50;0.25;;;12.10;83.40;;;;;;5115447;28;20054;-73
2024/03/04 11:34:20;;;;;;;0.20;0.20;;;12.30;82.90;;;;;;5115906;28;20050;-72
2024/03/04 11:36:46;;;;;;;0.28;0.28;;;12.40;82.70;;;;;;5115309;28;20047;-73
2024/03/04 11:39:16;;;;;;;0.30;0.30;;;12.40;82.50;;;;;;5115799;28;20063;-72
2024/03/04 11:41:47;;;;;;;0.73;0.30;;;12.40;82.30;;;;;;5096898;28;20043;-72
2024/03/04 11:44:15;;;;;;;0.20;0.20;;;12.40;82.30;;;;;;5096065;28;20035;-72
2024/03/04 11:46:42;;;;;;;1.30;0.35;;;12.30;82.50;;;;;;5051925;28;20102;-71
2024/03/04 11:49:25;;;;;;;0.50;0.30;;;12.30;82.50;;;;;;5035801;28;20041;-71
2024/03/04 11:52:14;;;;;;;0.50;0.25;;;12.20;82.50;;;;;;5051987;28;20516;-72
2024/03/04 11:54:43;;;;;;;1.35;0.28;;;12.20;82.70;;;;;;5052485;28;20045;-72
2024/03/04 11:57:08;;;;;;;0.57;0.25;;;12.20;82.80;;;;;;5035159;28;20147;-71
2024/03/04 11:59:35;;;;;;;0.63;0.30;;;12.20;82.80;;;;;;5052060;28;20519;-72
2024/03/04 12:02:08;;;;;;;0.20;0.20;;;12.30;82.70;;;;;;5035455;28;20041;-72
2024/03/04 12:04:34;;;;;;;0.30;0.30;;;12.20;82.30;;;;;;5051949;28;20045;-72
2024/03/04 12:07:00;;;;;;;0.30;0.30;;;12.30;82.40;;;;;;5051979;28;20049;-72
2024/03/04 12:09:26;;;;;;;0.47;0.43;;;12.30;82.60;;;;;;5051993;28;20080;-71
2024/03/04 12:11:55;;;;;;;0.70;0.40;;;12.50;82.60;;;;;;5052480;28;20040;-71
2024/03/04 12:14:21;;;;;;;0.40;0.40;;;12.80;81.90;;;;;;5051831;28;20555;-72
2024/03/04 12:16:47;;;;;;;0.52;0.50;;;12.80;81.60;;;;;;5061176;28;20062;-71
2024/03/04 12:19:12;;;;;;;0.65;0.50;;;12.80;81.60;;;;;;5114941;28;20126;-71
2024/03/04 12:21:38;;;;;;;0.50;0.50;;;12.80;81.40;;;;;;5114712;28;20043;-72
2024/03/04 12:24:04;;;;;;;0.68;0.47;;;12.80;81.60;;;;;;5114595;28;20051;-73
2024/03/04 12:26:30;;;;;;;0.45;0.45;;;12.80;81.70;;;;;;5114498;28;20046;-72
2024/03/04 12:29:11;;;;;;;0.50;0.50;;;12.70;82.40;;;;;;5096082;28;20040;-72
2024/03/04 12:31:38;;;;;;;;;;;12.60;82.00;;;;;;5114452;28;20032;-72
2024/03/04 12:34:06;;;;;;;0.40;0.40;;;12.70;82.30;;;;;;5114815;28;19918;-72
2024/03/04 12:36:32;;;;;;;2.30;0.50;;;12.60;82.30;;;;;;5095892;28;20048;-71
2024/03/04 12:38:59;;;;;;;0.73;0.40;;;12.60;82.40;;;;;;5095109;28;20076;-72
2024/03/04 12:41:25;;;;;;;0.63;0.40;;;12.60;82.30;;;;;;5114636;28;20051;-72
2024/03/04 12:43:53;;;;;;;0.30;0.30;;;12.70;82.20;;;;;;5114765;28;20089;-72
2024/03/04 12:46:20;;;;;;;0.47;0.43;;;12.80;82.10;;;;;;5096622;28;20059;-72
2024/03/04 12:48:45;;;;;;;0.32;0.30;;;12.70;81.60;;;;;;5096009;28;20118;-72
2024/03/04 12:51:12;;;;;;;0.40;0.30;;;12.70;81.80;;;;;;5095800;28;20194;-73
2024/03/04 12:53:39;;;;;;;0.55;0.35;;;12.70;81.80;;;;;;5113956;28;20122;-72
2024/03/04 12:56:05;;;;;;;0.35;0.30;;;12.90;81.50;;;;;;5079052;28;20083;-73
2024/03/04 12:58:31;;;;;;;0.30;0.30;;;13.00;81.30;;;;;;5095668;28;20410;-72
2024/03/04 13:00:59;;;;;;;1.10;0.35;;;13.20;80.90;;;;;;5095484;28;20047;-73
2024/03/04 13:03:25;;;;;;;1.02;0.30;;;13.30;80.20;;;;;;5114316;28;20032;-73